createdAt,value
2022-10-11T00:00:46.651Z,15.92
2022-10-11T00:03:14.644Z,15.92
2022-10-11T00:05:41.818Z,15.92
2022-10-11T00:08:09.071Z,15.89
2022-10-11T00:10:35.926Z,15.90
2022-10-11T00:13:02.693Z,15.87
2022-10-11T00:15:29.438Z,15.87
2022-10-11T00:17:56.417Z,15.87
2022-10-11T00:20:23.516Z,15.86
2022-10-11T00:22:50.587Z,15.85
2022-10-11T00:25:18.000Z,15.83
2022-10-11T00:27:45.100Z,15.82
2022-10-11T00:30:12.201Z,15.81
2022-10-11T00:32:39.511Z,15.81
2022-10-11T00:35:07.542Z,15.79
2022-10-11T00:37:35.936Z,15.78
2022-10-11T00:40:08.544Z,15.77
2022-10-11T00:42:35.425Z,15.78
2022-10-11T00:45:26.629Z,15.77
2022-10-11T00:47:56.571Z,15.75
2022-10-11T00:50:24.494Z,15.75
2022-10-11T00:52:56.213Z,15.75
2022-10-11T00:55:27.267Z,15.76
2022-10-11T00:57:56.014Z,15.74
2022-10-11T01:00:22.684Z,15.72
2022-10-11T01:02:49.441Z,15.71
2022-10-11T01:05:29.227Z,15.69
2022-10-11T01:07:58.851Z,15.68
2022-10-11T01:10:26.690Z,15.69
2022-10-11T01:13:29.060Z,15.68
2022-10-11T01:16:08.053Z,15.68
2022-10-11T01:18:39.344Z,15.66
2022-10-11T01:21:16.805Z,15.66
2022-10-11T01:24:08.200Z,15.65
2022-10-11T01:26:53.034Z,15.65
2022-10-11T01:29:57.386Z,15.64
2022-10-11T01:32:43.120Z,15.65
2022-10-11T01:35:09.737Z,15.63
2022-10-11T01:37:39.301Z,15.62
2022-10-11T01:40:23.331Z,15.60
2022-10-11T01:43:17.681Z,15.61
2022-10-11T01:45:47.916Z,15.59
2022-10-11T01:48:14.471Z,15.59
2022-10-11T01:50:47.972Z,15.59
2022-10-11T01:53:44.208Z,15.58
2022-10-11T01:56:30.275Z,15.58
2022-10-11T01:59:30.468Z,15.60
2022-10-11T02:02:54.588Z,15.54
2022-10-11T02:05:46.799Z,15.57
2022-10-11T02:08:46.212Z,15.53
2022-10-11T02:11:16.882Z,15.53
2022-10-11T02:13:50.170Z,15.51
2022-10-11T02:16:21.399Z,15.52
2022-10-11T02:18:51.694Z,15.51
2022-10-11T02:21:21.961Z,15.50
2022-10-11T02:24:10.009Z,15.49
2022-10-11T02:26:41.705Z,15.48
2022-10-11T02:29:09.852Z,15.48
2022-10-11T02:31:37.591Z,15.49
2022-10-11T02:34:14.838Z,15.47
2022-10-11T02:36:55.050Z,15.47
2022-10-11T02:39:27.340Z,15.47
2022-10-11T02:41:58.165Z,15.46
2022-10-11T02:44:33.028Z,15.45
2022-10-11T02:47:01.039Z,15.44
2022-10-11T02:49:29.751Z,15.43
2022-10-11T02:51:57.620Z,15.46
2022-10-11T02:54:27.535Z,15.45
2022-10-11T02:56:54.156Z,15.45
2022-10-11T02:59:20.796Z,15.44
2022-10-11T03:01:47.477Z,15.43
2022-10-11T03:04:14.167Z,15.39
2022-10-11T03:06:40.778Z,15.40
2022-10-11T03:09:07.325Z,15.37
2022-10-11T03:11:34.063Z,15.39
2022-10-11T03:14:00.715Z,15.40
2022-10-11T03:16:27.302Z,15.39
2022-10-11T03:18:54.184Z,15.38
2022-10-11T03:21:21.006Z,15.46
2022-10-11T03:23:47.566Z,15.41
2022-10-11T03:26:14.177Z,15.38
2022-10-11T03:28:40.935Z,15.37
2022-10-11T03:31:07.835Z,15.37
2022-10-11T03:33:34.548Z,15.36
2022-10-11T03:36:01.355Z,15.33
2022-10-11T03:38:28.358Z,15.35
2022-10-11T03:40:54.994Z,15.35
2022-10-11T03:43:21.578Z,15.35
2022-10-11T03:45:48.285Z,15.34
2022-10-11T03:48:15.044Z,15.30
2022-10-11T03:50:42.310Z,15.32
2022-10-11T03:53:09.065Z,15.33
2022-10-11T03:55:39.189Z,15.33
2022-10-11T03:58:06.336Z,15.33
2022-10-11T04:00:33.307Z,15.33
2022-10-11T04:03:00.231Z,15.33
2022-10-11T04:05:26.752Z,15.31
2022-10-11T04:07:53.545Z,15.31
2022-10-11T04:10:20.288Z,15.30
2022-10-11T04:12:47.081Z,15.35
2022-10-11T04:15:13.907Z,15.34
2022-10-11T04:17:41.085Z,15.31
2022-10-11T04:20:08.521Z,15.33
2022-10-11T04:22:35.245Z,15.30
2022-10-11T04:25:01.862Z,15.32
2022-10-11T04:27:29.308Z,15.30
2022-10-11T04:29:56.101Z,15.29
2022-10-11T04:32:22.758Z,15.30
2022-10-11T04:34:49.511Z,15.34
2022-10-11T04:37:16.227Z,15.33
2022-10-11T04:39:42.759Z,15.33
2022-10-11T04:42:09.560Z,15.36
2022-10-11T04:44:36.238Z,15.29
2022-10-11T04:47:03.040Z,15.28
2022-10-11T04:49:29.673Z,15.31
2022-10-11T04:51:56.562Z,15.33
2022-10-11T04:54:23.323Z,15.26
2022-10-11T04:56:50.111Z,15.29
2022-10-11T04:59:16.649Z,15.27
2022-10-11T05:01:43.385Z,15.32
2022-10-11T05:04:10.023Z,15.31
2022-10-11T05:06:36.646Z,15.28
2022-10-11T05:09:03.644Z,15.22
2022-10-11T05:11:30.639Z,15.26
2022-10-11T05:13:57.248Z,15.25
2022-10-11T05:16:24.078Z,15.29
2022-10-11T05:18:50.867Z,15.27
2022-10-11T05:21:23.132Z,15.29
2022-10-11T05:23:51.197Z,15.38
2022-10-11T05:26:19.647Z,15.32
2022-10-11T05:28:47.163Z,15.26
2022-10-11T05:31:14.589Z,15.27
2022-10-11T05:33:41.637Z,15.23
2022-10-11T05:36:09.479Z,15.20
2022-10-11T05:38:37.170Z,15.22
2022-10-11T05:41:04.669Z,15.26
2022-10-11T05:43:32.383Z,15.30
2022-10-11T05:45:59.055Z,15.26
2022-10-11T05:48:26.836Z,15.31
2022-10-11T05:50:59.039Z,15.30
2022-10-11T05:53:25.908Z,15.20
2022-10-11T05:55:52.533Z,15.19
2022-10-11T05:58:19.370Z,15.25
2022-10-11T06:00:46.021Z,15.31
2022-10-11T06:03:13.711Z,15.28
2022-10-11T06:05:40.359Z,15.35
2022-10-11T06:08:11.097Z,15.26
2022-10-11T06:10:39.020Z,15.26
2022-10-11T06:13:06.658Z,15.27
2022-10-11T06:15:34.444Z,15.32
2022-10-11T06:18:01.317Z,15.29
2022-10-11T06:20:28.018Z,15.32
2022-10-11T06:22:54.873Z,15.28
2022-10-11T06:25:21.870Z,15.40
2022-10-11T06:27:48.577Z,15.32
2022-10-11T06:30:15.207Z,15.32
2022-10-11T06:32:41.799Z,15.39
2022-10-11T06:35:09.114Z,15.39
2022-10-11T06:37:36.034Z,15.28
2022-10-11T06:40:03.006Z,15.22
2022-10-11T06:42:29.634Z,15.42
2022-10-11T06:44:56.237Z,15.37
2022-10-11T06:47:22.849Z,15.35
2022-10-11T06:49:49.692Z,15.44
2022-10-11T06:52:16.334Z,15.39
2022-10-11T06:54:44.996Z,15.27
2022-10-11T06:57:12.592Z,15.33
2022-10-11T06:59:39.271Z,15.32
2022-10-11T07:02:05.921Z,15.30
2022-10-11T07:04:33.886Z,15.34
2022-10-11T07:07:01.081Z,15.44
2022-10-11T07:09:27.828Z,15.50
2022-10-11T07:11:54.384Z,15.51
2022-10-11T07:14:21.078Z,15.61
2022-10-11T07:16:47.715Z,15.65
2022-10-11T07:19:14.423Z,15.66
2022-10-11T07:21:40.997Z,15.75
2022-10-11T07:24:07.789Z,15.79
2022-10-11T07:26:38.776Z,15.77
2022-10-11T07:29:08.042Z,15.83
2022-10-11T07:31:38.494Z,15.80
2022-10-11T07:34:05.115Z,15.85
2022-10-11T07:36:31.741Z,15.88
2022-10-11T07:38:58.277Z,15.90
2022-10-11T07:41:24.871Z,15.93
2022-10-11T07:43:51.696Z,16.03
2022-10-11T07:46:18.852Z,16.03
2022-10-11T07:48:45.586Z,16.02
2022-10-11T07:51:15.015Z,16.06
2022-10-11T07:53:48.401Z,16.06
2022-10-11T07:56:17.613Z,16.00
2022-10-11T07:58:44.785Z,15.97
2022-10-11T08:01:12.075Z,15.91
2022-10-11T08:03:38.945Z,15.83
2022-10-11T08:06:09.453Z,15.81
2022-10-11T08:08:37.554Z,15.76
2022-10-11T08:11:04.462Z,15.83
2022-10-11T08:13:31.692Z,15.89
2022-10-11T08:15:58.407Z,15.88
2022-10-11T08:18:25.507Z,15.93
2022-10-11T08:20:52.251Z,15.94
2022-10-11T08:23:19.742Z,16.04
2022-10-11T08:25:48.260Z,16.09
2022-10-11T08:28:17.638Z,16.11
2022-10-11T08:30:53.631Z,16.09
2022-10-11T08:33:22.756Z,16.17
2022-10-11T08:35:50.523Z,16.15
2022-10-11T08:38:18.014Z,15.94
2022-10-11T08:40:49.263Z,15.96
2022-10-11T08:43:44.777Z,15.88
2022-10-11T08:46:14.135Z,15.83
2022-10-11T08:48:42.191Z,15.81
2022-10-11T08:51:18.981Z,16.01
2022-10-11T08:54:07.600Z,15.96
2022-10-11T08:56:39.883Z,15.99
2022-10-11T08:59:12.362Z,15.98
2022-10-11T09:01:52.780Z,15.95
2022-10-11T09:04:19.662Z,15.93
2022-10-11T09:06:46.444Z,15.90
2022-10-11T09:09:22.300Z,15.87
2022-10-11T09:11:51.960Z,15.77
2022-10-11T09:14:33.192Z,15.80
2022-10-11T09:16:59.947Z,15.83
2022-10-11T09:19:47.966Z,15.82
2022-10-11T09:22:42.544Z,15.77
2022-10-11T09:25:09.085Z,15.72
2022-10-11T09:28:01.314Z,15.73
2022-10-11T09:30:26.612Z,15.71
2022-10-11T09:33:08.209Z,15.64
2022-10-11T09:35:44.158Z,15.62
2022-10-11T09:38:55.752Z,15.62
2022-10-11T09:41:31.348Z,15.61
2022-10-11T09:43:57.945Z,15.60
2022-10-11T09:46:36.802Z,15.63
2022-10-11T09:49:12.188Z,15.64
2022-10-11T09:51:43.864Z,15.65
2022-10-11T09:54:10.908Z,15.65
2022-10-11T09:56:43.999Z,15.64
2022-10-11T09:59:32.868Z,15.63
2022-10-11T10:02:14.955Z,15.63
2022-10-11T10:05:10.535Z,15.64
2022-10-11T10:07:40.947Z,15.64
2022-10-11T10:10:31.321Z,15.65
2022-10-11T10:13:04.077Z,15.61
2022-10-11T10:15:38.202Z,15.61
2022-10-11T10:18:06.528Z,15.60
2022-10-11T10:20:35.893Z,15.60
2022-10-11T10:23:23.665Z,15.64
2022-10-11T10:25:51.736Z,15.61
2022-10-11T10:28:26.977Z,15.61
2022-10-11T10:30:58.694Z,15.65
2022-10-11T10:33:33.735Z,15.75
2022-10-11T10:36:09.216Z,15.87
2022-10-11T10:38:52.193Z,15.92
2022-10-11T10:41:19.765Z,15.97
2022-10-11T10:43:53.770Z,16.01
2022-10-11T10:46:38.430Z,16.10
2022-10-11T10:49:51.964Z,16.08
2022-10-11T10:52:21.595Z,16.08
2022-10-11T10:55:12.998Z,16.19
2022-10-11T10:58:05.117Z,16.19
2022-10-11T11:00:42.137Z,16.29
2022-10-11T11:03:21.699Z,16.30
2022-10-11T11:06:07.333Z,16.29
2022-10-11T11:08:40.174Z,16.27
2022-10-11T11:11:39.274Z,16.32
2022-10-11T11:14:11.887Z,16.39
2022-10-11T11:17:05.914Z,16.44
2022-10-11T11:19:46.951Z,16.38
2022-10-11T11:22:32.973Z,16.47
2022-10-11T11:25:21.302Z,16.43
2022-10-11T11:28:06.017Z,16.48
2022-10-11T11:30:51.382Z,16.41
2022-10-11T11:33:33.215Z,16.37
2022-10-11T11:36:04.884Z,16.33
2022-10-11T11:38:44.083Z,16.30
2022-10-11T11:41:24.025Z,16.33
2022-10-11T11:43:57.996Z,16.36
2022-10-11T11:46:38.614Z,16.36
2022-10-11T11:49:13.289Z,16.32
2022-10-11T11:51:45.203Z,16.28
2022-10-11T11:54:30.361Z,16.24
2022-10-11T11:57:05.746Z,16.20
2022-10-11T11:59:45.829Z,16.22
2022-10-11T12:02:43.262Z,16.25
2022-10-11T12:05:13.021Z,16.33
2022-10-11T12:07:56.936Z,16.29
2022-10-11T12:10:28.559Z,16.35
2022-10-11T12:13:17.905Z,16.47
2022-10-11T12:16:03.208Z,16.49
2022-10-11T12:18:32.253Z,16.53
2022-10-11T12:21:06.295Z,16.57
2022-10-11T12:23:41.247Z,16.60
2022-10-11T12:26:29.377Z,16.57
2022-10-11T12:29:28.774Z,16.62
2022-10-11T12:31:58.689Z,16.61
2022-10-11T12:34:34.450Z,16.67
2022-10-11T12:37:21.614Z,16.80
2022-10-11T12:40:00.313Z,16.80
2022-10-11T12:42:29.382Z,16.81
2022-10-11T12:45:10.944Z,16.82
2022-10-11T12:47:47.208Z,16.82
2022-10-11T12:50:30.772Z,16.82
2022-10-11T12:53:03.982Z,16.83
2022-10-11T12:55:42.676Z,16.87
2022-10-11T12:58:38.485Z,16.94
2022-10-11T13:01:12.906Z,16.95
2022-10-11T13:03:49.307Z,16.99
2022-10-11T13:06:24.948Z,16.90
2022-10-11T13:09:00.263Z,16.88
2022-10-11T13:11:33.879Z,16.84
2022-10-11T13:14:07.914Z,16.86
2022-10-11T13:16:49.653Z,16.89
2022-10-11T13:19:16.974Z,16.88
2022-10-11T13:21:49.678Z,16.80
2022-10-11T13:24:19.220Z,16.72
2022-10-11T13:26:49.392Z,16.63
2022-10-11T13:29:19.877Z,16.62
2022-10-11T13:31:48.240Z,16.67
2022-10-11T13:34:18.624Z,16.70
2022-10-11T13:36:47.823Z,16.70
2022-10-11T13:39:31.087Z,16.65
2022-10-11T13:42:00.266Z,16.65
2022-10-11T13:44:27.333Z,16.64
2022-10-11T13:46:54.559Z,16.61
2022-10-11T13:49:38.522Z,16.60
2022-10-11T13:52:21.690Z,16.62
2022-10-11T13:55:03.695Z,16.60
2022-10-11T13:57:46.201Z,16.57
2022-10-11T14:00:15.503Z,16.55
2022-10-11T14:02:53.955Z,16.56
2022-10-11T14:05:42.379Z,16.59
2022-10-11T14:08:20.979Z,16.59
2022-10-11T14:10:54.204Z,16.56
2022-10-11T14:13:35.880Z,16.56
2022-10-11T14:16:07.027Z,16.60
2022-10-11T14:19:12.344Z,16.77
2022-10-11T14:21:47.698Z,16.82
2022-10-11T14:24:15.096Z,16.84
2022-10-11T14:26:45.231Z,16.89
2022-10-11T14:29:26.794Z,16.92
2022-10-11T14:32:04.841Z,17.00
2022-10-11T14:34:32.029Z,17.05
2022-10-11T14:36:58.712Z,17.09
2022-10-11T14:39:27.794Z,17.13
2022-10-11T14:41:55.044Z,17.24
2022-10-11T14:44:22.246Z,17.28
2022-10-11T14:46:50.554Z,17.37
2022-10-11T14:49:25.088Z,17.29
2022-10-11T14:51:53.215Z,17.34
2022-10-11T14:54:24.269Z,17.32
2022-10-11T14:56:52.709Z,17.33
2022-10-11T14:59:22.717Z,17.31
2022-10-11T15:01:53.891Z,17.32
2022-10-11T15:04:26.179Z,17.32
2022-10-11T15:06:55.701Z,17.29
2022-10-11T15:09:27.918Z,17.23
2022-10-11T15:11:55.458Z,17.19
2022-10-11T15:14:23.740Z,17.20
2022-10-11T15:16:50.708Z,17.18
2022-10-11T15:19:20.074Z,17.19
2022-10-11T15:21:46.679Z,17.13
2022-10-11T15:24:14.178Z,17.10
2022-10-11T15:26:41.386Z,17.10
2022-10-11T15:29:11.377Z,17.09
2022-10-11T15:31:38.509Z,16.93
2022-10-11T15:34:05.259Z,16.94
2022-10-11T15:36:31.971Z,16.90
2022-10-11T15:38:58.556Z,16.92
2022-10-11T15:41:25.228Z,16.90
2022-10-11T15:43:52.177Z,16.93
2022-10-11T15:46:22.207Z,16.96
2022-10-11T15:48:50.778Z,16.91
2022-10-11T15:51:17.907Z,16.90
2022-10-11T15:53:44.845Z,16.90
2022-10-11T15:56:15.654Z,16.85
2022-10-11T15:58:42.946Z,16.92
2022-10-11T16:01:14.804Z,17.02
2022-10-11T16:03:41.892Z,17.01
2022-10-11T16:06:09.515Z,17.01
2022-10-11T16:08:36.717Z,17.04
2022-10-11T16:11:05.025Z,17.08
2022-10-11T16:13:32.012Z,17.09
2022-10-11T16:16:02.157Z,17.14
2022-10-11T16:18:34.906Z,17.14
2022-10-11T16:21:06.878Z,17.11
2022-10-11T16:23:33.937Z,17.10
2022-10-11T16:26:03.660Z,17.09
2022-10-11T16:28:32.056Z,17.11
2022-10-11T16:30:58.673Z,17.16
2022-10-11T16:33:25.387Z,17.12
2022-10-11T16:35:52.399Z,17.13
2022-10-11T16:38:18.928Z,17.15
2022-10-11T16:40:45.898Z,17.08
2022-10-11T16:43:12.703Z,17.02
2022-10-11T16:45:39.602Z,17.00
2022-10-11T16:48:06.466Z,17.02
2022-10-11T16:50:38.328Z,17.02
2022-10-11T16:53:06.232Z,17.01
2022-10-11T16:55:33.166Z,17.09
2022-10-11T16:57:59.959Z,17.19
2022-10-11T17:00:26.702Z,17.19
2022-10-11T17:02:53.400Z,17.15
2022-10-11T17:05:20.007Z,17.19
2022-10-11T17:07:46.573Z,17.16
2022-10-11T17:10:13.275Z,17.14
2022-10-11T17:12:39.855Z,17.19
2022-10-11T17:15:06.992Z,17.08
2022-10-11T17:17:33.736Z,17.01
2022-10-11T17:20:02.269Z,16.97
2022-10-11T17:22:29.231Z,16.95
2022-10-11T17:24:56.026Z,16.95
2022-10-11T17:27:22.834Z,17.05
2022-10-11T17:29:49.403Z,16.97
2022-10-11T17:32:15.941Z,16.94
2022-10-11T17:34:42.461Z,16.96
2022-10-11T17:37:10.105Z,16.93
2022-10-11T17:39:36.769Z,16.83
2022-10-11T17:42:07.295Z,16.77
2022-10-11T17:44:35.614Z,16.78
2022-10-11T17:47:02.831Z,16.74
2022-10-11T17:49:29.611Z,16.72
2022-10-11T17:51:56.801Z,16.76
2022-10-11T17:54:23.607Z,16.75
2022-10-11T17:56:50.352Z,16.67
2022-10-11T17:59:21.016Z,16.68
2022-10-11T18:01:51.431Z,16.73
2022-10-11T18:04:20.029Z,16.67
2022-10-11T18:06:48.402Z,16.62
2022-10-11T18:09:17.259Z,16.61
2022-10-11T18:11:44.421Z,16.62
2022-10-11T18:14:11.544Z,16.55
2022-10-11T18:16:39.025Z,16.57
2022-10-11T18:19:08.859Z,16.56
2022-10-11T18:21:37.723Z,16.58
2022-10-11T18:24:10.757Z,16.57
2022-10-11T18:26:37.533Z,16.53
2022-10-11T18:29:04.966Z,16.48
2022-10-11T18:31:36.342Z,16.41
2022-10-11T18:34:05.288Z,16.44
2022-10-11T18:36:32.771Z,16.53
2022-10-11T18:39:03.241Z,16.47
2022-10-11T18:41:31.901Z,16.43
2022-10-11T18:44:02.308Z,16.40
2022-10-11T18:46:29.612Z,16.39
2022-10-11T18:48:58.203Z,16.42
2022-10-11T18:51:30.295Z,16.40
2022-10-11T18:54:00.221Z,16.38
2022-10-11T18:56:28.897Z,16.42
2022-10-11T18:58:56.973Z,16.33
2022-10-11T19:01:29.906Z,16.34
2022-10-11T19:03:58.648Z,16.36
2022-10-11T19:06:31.533Z,16.23
2022-10-11T19:09:01.836Z,16.24
2022-10-11T19:11:28.611Z,16.26
2022-10-11T19:14:00.963Z,16.18
2022-10-11T19:16:29.824Z,16.14
2022-10-11T19:18:57.488Z,16.18
2022-10-11T19:21:24.728Z,16.17
2022-10-11T19:23:52.171Z,16.12
2022-10-11T19:26:26.660Z,16.12
2022-10-11T19:28:58.440Z,16.11
2022-10-11T19:31:25.452Z,16.05
2022-10-11T19:33:52.217Z,15.98
2022-10-11T19:36:19.099Z,16.00
2022-10-11T19:38:48.371Z,15.95
2022-10-11T19:41:16.180Z,15.98
2022-10-11T19:43:43.122Z,15.91
2022-10-11T19:46:20.218Z,15.90
2022-10-11T19:48:54.402Z,15.90
2022-10-11T19:51:26.009Z,16.06
2022-10-11T19:54:00.453Z,16.09
2022-10-11T19:56:29.692Z,16.11
2022-10-11T19:58:56.940Z,16.17
2022-10-11T20:01:25.973Z,16.23
2022-10-11T20:03:55.460Z,16.29
2022-10-11T20:06:22.825Z,16.32
2022-10-11T20:08:59.869Z,16.33
2022-10-11T20:11:37.106Z,16.35
2022-10-11T20:14:03.985Z,16.38
2022-10-11T20:16:30.702Z,16.41
2022-10-11T20:19:02.015Z,16.44
2022-10-11T20:21:30.453Z,16.43
2022-10-11T20:24:03.046Z,16.45
2022-10-11T20:26:30.830Z,16.47
2022-10-11T20:28:58.245Z,16.47
2022-10-11T20:31:27.901Z,16.51
2022-10-11T20:33:56.956Z,16.50
2022-10-11T20:36:26.077Z,16.49
2022-10-11T20:38:52.802Z,16.50
2022-10-11T20:41:22.765Z,16.53
2022-10-11T20:43:52.157Z,16.56
2022-10-11T20:46:19.792Z,16.52
2022-10-11T20:48:58.883Z,16.51
2022-10-11T20:51:29.048Z,16.53
2022-10-11T20:53:56.455Z,16.52
2022-10-11T20:56:23.545Z,16.51
2022-10-11T20:58:52.692Z,16.51
2022-10-11T21:01:30.936Z,16.50
2022-10-11T21:03:59.032Z,16.56
2022-10-11T21:06:27.310Z,16.60
2022-10-11T21:08:57.133Z,16.51
2022-10-11T21:11:28.774Z,16.45
2022-10-11T21:13:56.714Z,16.42
2022-10-11T21:16:23.787Z,16.40
2022-10-11T21:18:52.558Z,16.35
2022-10-11T21:21:20.457Z,16.34
2022-10-11T21:23:47.519Z,16.29
2022-10-11T21:26:15.619Z,16.26
2022-10-11T21:28:42.332Z,16.24
2022-10-11T21:31:14.804Z,16.25
2022-10-11T21:33:43.304Z,16.23
2022-10-11T21:36:13.018Z,16.21
2022-10-11T21:38:40.341Z,16.27
2022-10-11T21:41:10.008Z,16.18
2022-10-11T21:43:38.274Z,16.15
2022-10-11T21:46:17.699Z,16.03
2022-10-11T21:48:44.586Z,15.93
2022-10-11T21:51:15.590Z,15.93
2022-10-11T21:53:42.158Z,15.91
2022-10-11T21:56:08.904Z,15.86
2022-10-11T21:58:35.628Z,15.83
2022-10-11T22:01:02.482Z,15.81
2022-10-11T22:03:29.365Z,15.80
2022-10-11T22:05:56.283Z,15.76
2022-10-11T22:08:23.045Z,15.74
2022-10-11T22:10:55.861Z,15.75
2022-10-11T22:13:23.131Z,15.71
2022-10-11T22:15:49.876Z,15.70
2022-10-11T22:18:16.552Z,15.67
2022-10-11T22:20:43.593Z,15.66
2022-10-11T22:23:10.342Z,15.64
2022-10-11T22:25:38.508Z,15.65
2022-10-11T22:28:05.421Z,15.63
2022-10-11T22:30:32.157Z,15.63
2022-10-11T22:32:58.781Z,15.61
2022-10-11T22:35:25.939Z,15.58
2022-10-11T22:37:52.684Z,15.57
2022-10-11T22:40:20.174Z,15.53
2022-10-11T22:42:47.291Z,15.50
2022-10-11T22:45:13.880Z,15.49
2022-10-11T22:47:40.480Z,15.50
2022-10-11T22:50:07.392Z,15.48
2022-10-11T22:52:34.292Z,15.48
2022-10-11T22:55:01.053Z,15.48
2022-10-11T22:57:27.826Z,15.46
2022-10-11T22:59:54.377Z,15.46
2022-10-11T23:02:20.988Z,15.45
2022-10-11T23:04:47.889Z,15.44
2022-10-11T23:07:14.707Z,15.41
2022-10-11T23:09:41.537Z,15.40
2022-10-11T23:12:08.313Z,15.38
2022-10-11T23:14:35.010Z,15.35
2022-10-11T23:17:01.757Z,15.36
2022-10-11T23:19:28.359Z,15.34
2022-10-11T23:21:54.877Z,15.33
2022-10-11T23:24:21.640Z,15.33
2022-10-11T23:26:48.313Z,15.32
2022-10-11T23:29:15.015Z,15.29
2022-10-11T23:31:41.814Z,15.33
2022-10-11T23:34:09.585Z,15.30
2022-10-11T23:36:36.121Z,15.30
2022-10-11T23:39:02.893Z,15.28
2022-10-11T23:41:30.813Z,15.24
2022-10-11T23:43:58.334Z,15.26
2022-10-11T23:46:25.389Z,15.25
2022-10-11T23:48:52.054Z,15.23
2022-10-11T23:51:18.680Z,15.22
2022-10-11T23:53:45.315Z,15.22
2022-10-11T23:56:12.494Z,15.18
2022-10-11T23:58:39.475Z,15.20
